Weather at Centre Hospitalier Heliport

Public forecast

Using degrees Celsius for public forecast. Weather courtesy of forecast.io.

Closest aviation weather report (METAR) to Centre Hospitalier Heliport

Closest report is Les Eplatures Airport, 20.9 nm (38.7 km) ENE. Retrieved 2020/09/20 09:20 UTC (0 seconds ago):

LSGC 200920Z VRB01KT CAVOK 19/13 Q1017

Closest aviation forecast (TAF) to Centre Hospitalier Heliport

Closest forecast is Payerne Air Base, 23.1 nm (42.7 km) E. Retrieved 2020/09/20 10:00 UTC (0 seconds ago):

TAF LSMP 200925Z 2010/2116 VRB03KT 6000 BR SCT010 TEMPO 2015/2021 VRB10G20KT SHRA SCT040TCU BECMG 2100/2103 3000 BR PROB30 TEMPO 2103/2106 0800 FG BECMG 2106/2109 7000